עמוד ראשי
METAR-TAF:

METAR-TAF

שדות תעופה :

Manokotak, אלסקה, ארצות הברית

קו רוחב: 58-59-19N, קו אורך: 159-02-56W, גובה: 16מטר

תצפית מזג אוויר נוכחית

הדו"ח נערך לפני 48דקות, בשעה 23:56 UTC
רוח 7קשר מכיוון מערב/דרום-מערב
טמפרטורת 18 צלסיוס
לחות 49%
לחץ 1014 hPa
ראות: 8.0קילומטר
שמיים נקיים
אובך

METAR: PAMB 212356Z AUTO 24007KT 5SM HZ CLR 18/07 A2995 RMK AO2 SLP143 T01780072 10183 20117 58006

זמן: 16:44 (00:44 UTC)


TAF: חסר

תצפיות ותחזיות מזג אוויר לגבי יותר מ- 4,000 שדות תעופה ברחבי העולם. דוחות METAR ו- TAF.

התחנות הזמינות מסומנות בנקודות צהובות ואדומות על גבי המפה.

העבר את העכבר לנקודה הצבעונית על מנת לראות את שם התחנה.

לאחר מכן, לחץ כדי לראות את תוכן ואת תחזיות מזג האוויר.

כדי לשנות את המפה: לחץ על הכפתורים הירוקים עם הפלוס השחור כדי להתקרב; על הכפתור הירוק עם המקף כדי להתרחק; או בחיצים הירוקים למפות סמוכות.


METAR-TAF: